map of MUW home
Great Circle Mapper logo
MUW - Airport
Location
City:  Ghriss, Algeria
Near (Alt.):Mascara-Ghriss
ICAO / IATA:DAOV / MUW

Details
Type:Airport (Aerodrome, Airfield)
Latitude:3513'01"N (35.216944)
Longitude:008'54"E (0.148333)
Elevation:1686 ft (514 m)
Runways:1
Longest:5577 × 98 ft (1700 × 30 m)

Time
Time Zone:UTC+1
Local Time:

Weather
METAR:DAOV 240900Z 00000KT CAVOK 17/11 Q1020

Related Locations
Nearby:
Farthest:NZOP: 12185 mi / 19610 km
Opotiki, NZ

Find:

   beyond  
but within

Other Information
Maps:
NOTAMs:
Links:
Sources:

  
flag of Algeria   

Sectional Chart

Flight Planning
at skyvector.com

Satellite Image

Google Maps Satellite View

 

Copyright © 2004-2014 Karl L. Swartz. All rights reserved.
The Great Circle Mapper name and logo are trademarks of the Great Circle Mapper.
All other trademarks mentioned herein belong to their respective owners.
Please see credits for attibutions and further copyright information.

  Follow gcmap on Facebook Follow gcmap on Twitter

hCard Microformat

Geo Microformat